sensor_id;sensor_type;location;lat;lon;timestamp;temperature;humidity
60909;DHT22;46780;48.128;-1.704;2023-03-14T00:02:21;11.80;99.90
60909;DHT22;46780;48.128;-1.704;2023-03-14T00:04:48;11.80;99.90
60909;DHT22;46780;48.128;-1.704;2023-03-14T00:07:15;11.80;99.90
60909;DHT22;46780;48.128;-1.704;2023-03-14T00:09:41;11.80;99.90
60909;DHT22;46780;48.128;-1.704;2023-03-14T00:12:09;11.80;99.90
60909;DHT22;46780;48.128;-1.704;2023-03-14T00:14:35;11.90;99.90
60909;DHT22;46780;48.128;-1.704;2023-03-14T00:17:01;11.90;99.90
60909;DHT22;46780;48.128;-1.704;2023-03-14T00:19:28;11.90;99.90
60909;DHT22;46780;48.128;-1.704;2023-03-14T00:21:56;11.90;99.90
60909;DHT22;46780;48.128;-1.704;2023-03-14T00:24:22;11.90;99.90
60909;DHT22;46780;48.128;-1.704;2023-03-14T00:26:48;11.90;99.90
60909;DHT22;46780;48.128;-1.704;2023-03-14T00:29:15;11.90;99.90
60909;DHT22;46780;48.128;-1.704;2023-03-14T00:31:41;11.90;99.90
60909;DHT22;46780;48.128;-1.704;2023-03-14T00:34:08;11.90;99.90
60909;DHT22;46780;48.128;-1.704;2023-03-14T00:36:34;11.90;99.90
60909;DHT22;46780;48.128;-1.704;2023-03-14T00:39:02;11.90;99.90
60909;DHT22;46780;48.128;-1.704;2023-03-14T00:41:29;11.90;99.90
60909;DHT22;46780;48.128;-1.704;2023-03-14T00:43:55;11.90;99.90
60909;DHT22;46780;48.128;-1.704;2023-03-14T00:46:21;11.90;99.90
60909;DHT22;46780;48.128;-1.704;2023-03-14T00:48:48;11.80;99.90
60909;DHT22;46780;48.128;-1.704;2023-03-14T00:51:15;11.80;99.90
60909;DHT22;46780;48.128;-1.704;2023-03-14T00:53:41;11.70;99.90
60909;DHT22;46780;48.128;-1.704;2023-03-14T00:56:11;11.70;99.90
60909;DHT22;46780;48.128;-1.704;2023-03-14T00:58:39;11.70;99.90
60909;DHT22;46780;48.128;-1.704;2023-03-14T01:01:07;11.70;99.90
60909;DHT22;46780;48.128;-1.704;2023-03-14T01:03:33;11.70;99.90
60909;DHT22;46780;48.128;-1.704;2023-03-14T01:06:08;11.60;99.90
60909;DHT22;46780;48.128;-1.704;2023-03-14T01:08:34;11.50;99.90
60909;DHT22;46780;48.128;-1.704;2023-03-14T01:11:05;11.50;99.90
60909;DHT22;46780;48.128;-1.704;2023-03-14T01:13:33;11.40;99.90
60909;DHT22;46780;48.128;-1.704;2023-03-14T01:16:02;11.40;99.90
60909;DHT22;46780;48.128;-1.704;2023-03-14T01:18:28;11.30;99.90
60909;DHT22;46780;48.128;-1.704;2023-03-14T01:20:54;11.30;99.90
60909;DHT22;46780;48.128;-1.704;2023-03-14T01:23:21;11.20;99.90
60909;DHT22;46780;48.128;-1.704;2023-03-14T01:25:47;11.20;99.90
60909;DHT22;46780;48.128;-1.704;2023-03-14T01:28:14;11.20;99.90
60909;DHT22;46780;48.128;-1.704;2023-03-14T01:30:42;11.20;99.90
60909;DHT22;46780;48.128;-1.704;2023-03-14T01:33:08;11.20;99.90
60909;DHT22;46780;48.128;-1.704;2023-03-14T01:35:35;11.20;99.90
60909;DHT22;46780;48.128;-1.704;2023-03-14T01:38:01;11.20;99.90
60909;DHT22;46780;48.128;-1.704;2023-03-14T01:40:28;11.20;99.90
60909;DHT22;46780;48.128;-1.704;2023-03-14T01:42:55;11.10;99.90
60909;DHT22;46780;48.128;-1.704;2023-03-14T01:48:31;11.20;99.90
60909;DHT22;46780;48.128;-1.704;2023-03-14T01:50:59;11.10;99.90
60909;DHT22;46780;48.128;-1.704;2023-03-14T01:53:27;11.10;99.90
60909;DHT22;46780;48.128;-1.704;2023-03-14T01:55:55;11.10;99.90
60909;DHT22;46780;48.128;-1.704;2023-03-14T01:58:23;11.00;99.90
60909;DHT22;46780;48.128;-1.704;2023-03-14T02:00:50;11.00;99.90
60909;DHT22;46780;48.128;-1.704;2023-03-14T02:03:18;10.90;99.90
60909;DHT22;46780;48.128;-1.704;2023-03-14T02:05:48;10.80;99.90
60909;DHT22;46780;48.128;-1.704;2023-03-14T02:08:17;10.70;99.90
60909;DHT22;46780;48.128;-1.704;2023-03-14T02:10:47;10.60;99.90
60909;DHT22;46780;48.128;-1.704;2023-03-14T02:13:15;10.60;99.90
60909;DHT22;46780;48.128;-1.704;2023-03-14T02:15:42;10.50;99.90
60909;DHT22;46780;48.128;-1.704;2023-03-14T02:18:09;10.50;99.90
60909;DHT22;46780;48.128;-1.704;2023-03-14T02:20:41;10.50;99.90
60909;DHT22;46780;48.128;-1.704;2023-03-14T02:23:15;10.50;99.90
60909;DHT22;46780;48.128;-1.704;2023-03-14T02:25:45;10.40;99.90
60909;DHT22;46780;48.128;-1.704;2023-03-14T02:28:14;10.40;99.90
60909;DHT22;46780;48.128;-1.704;2023-03-14T02:30:42;10.40;99.90
60909;DHT22;46780;48.128;-1.704;2023-03-14T02:33:11;10.40;99.90
60909;DHT22;46780;48.128;-1.704;2023-03-14T02:35:44;10.40;99.90
60909;DHT22;46780;48.128;-1.704;2023-03-14T02:38:17;10.40;99.90
60909;DHT22;46780;48.128;-1.704;2023-03-14T02:40:45;10.40;99.90
60909;DHT22;46780;48.128;-1.704;2023-03-14T02:43:13;10.40;99.90
60909;DHT22;46780;48.128;-1.704;2023-03-14T02:45:44;10.50;99.90
60909;DHT22;46780;48.128;-1.704;2023-03-14T02:48:15;10.50;99.90
60909;DHT22;46780;48.128;-1.704;2023-03-14T02:50:43;10.40;99.90
60909;DHT22;46780;48.128;-1.704;2023-03-14T02:53:13;10.30;99.90
60909;DHT22;46780;48.128;-1.704;2023-03-14T02:55:40;10.30;99.90
60909;DHT22;46780;48.128;-1.704;2023-03-14T02:58:10;10.20;99.90
60909;DHT22;46780;48.128;-1.704;2023-03-14T03:00:38;10.20;99.90
60909;DHT22;46780;48.128;-1.704;2023-03-14T03:03:04;10.20;99.90
60909;DHT22;46780;48.128;-1.704;2023-03-14T03:05:31;10.20;99.90
60909;DHT22;46780;48.128;-1.704;2023-03-14T03:07:57;10.10;99.90
60909;DHT22;46780;48.128;-1.704;2023-03-14T03:10:24;10.10;99.90
60909;DHT22;46780;48.128;-1.704;2023-03-14T03:12:51;10.10;99.90
60909;DHT22;46780;48.128;-1.704;2023-03-14T03:15:17;10.00;99.90
60909;DHT22;46780;48.128;-1.704;2023-03-14T03:17:45;10.00;99.90
60909;DHT22;46780;48.128;-1.704;2023-03-14T03:20:12;10.00;99.90
60909;DHT22;46780;48.128;-1.704;2023-03-14T03:22:38;10.00;99.90
60909;DHT22;46780;48.128;-1.704;2023-03-14T03:25:06;10.00;99.90
60909;DHT22;46780;48.128;-1.704;2023-03-14T03:27:34;10.00;99.90
60909;DHT22;46780;48.128;-1.704;2023-03-14T03:30:01;10.00;99.90
60909;DHT22;46780;48.128;-1.704;2023-03-14T03:32:27;10.00;99.90
60909;DHT22;46780;48.128;-1.704;2023-03-14T03:34:55;10.00;99.90
60909;DHT22;46780;48.128;-1.704;2023-03-14T03:37:22;10.00;99.90
60909;DHT22;46780;48.128;-1.704;2023-03-14T03:39:50;10.00;99.90
60909;DHT22;46780;48.128;-1.704;2023-03-14T03:42:16;10.00;99.90
60909;DHT22;46780;48.128;-1.704;2023-03-14T03:44:44;10.00;99.90
60909;DHT22;46780;48.128;-1.704;2023-03-14T03:47:10;10.10;99.90
60909;DHT22;46780;48.128;-1.704;2023-03-14T03:49:37;10.10;99.90
60909;DHT22;46780;48.128;-1.704;2023-03-14T03:52:05;10.10;99.90
60909;DHT22;46780;48.128;-1.704;2023-03-14T03:54:31;10.10;99.90
60909;DHT22;46780;48.128;-1.704;2023-03-14T03:56:57;10.10;99.90
60909;DHT22;46780;48.128;-1.704;2023-03-14T03:59:24;10.10;99.90
60909;DHT22;46780;48.128;-1.704;2023-03-14T04:01:50;10.10;99.90
60909;DHT22;46780;48.128;-1.704;2023-03-14T04:04:17;10.20;99.90
60909;DHT22;46780;48.128;-1.704;2023-03-14T04:06:43;10.20;99.90
60909;DHT22;46780;48.128;-1.704;2023-03-14T04:09:12;10.10;99.90
60909;DHT22;46780;48.128;-1.704;2023-03-14T04:11:38;10.10;99.90
60909;DHT22;46780;48.128;-1.704;2023-03-14T04:14:05;10.10;99.90
60909;DHT22;46780;48.128;-1.704;2023-03-14T04:16:31;10.10;99.90
60909;DHT22;46780;48.128;-1.704;2023-03-14T04:18:58;10.10;99.90
60909;DHT22;46780;48.128;-1.704;2023-03-14T04:21:25;10.00;99.90
60909;DHT22;46780;48.128;-1.704;2023-03-14T04:23:51;10.00;99.90
60909;DHT22;46780;48.128;-1.704;2023-03-14T04:26:19;10.00;99.90
60909;DHT22;46780;48.128;-1.704;2023-03-14T04:28:46;9.90;99.90
60909;DHT22;46780;48.128;-1.704;2023-03-14T04:31:13;9.90;99.90
60909;DHT22;46780;48.128;-1.704;2023-03-14T04:33:40;9.90;99.90
60909;DHT22;46780;48.128;-1.704;2023-03-14T04:36:08;9.80;99.90
60909;DHT22;46780;48.128;-1.704;2023-03-14T04:38:34;9.80;99.90
60909;DHT22;46780;48.128;-1.704;2023-03-14T04:41:02;9.70;99.90
60909;DHT22;46780;48.128;-1.704;2023-03-14T04:43:30;9.70;99.90
60909;DHT22;46780;48.128;-1.704;2023-03-14T04:45:57;9.70;99.90
60909;DHT22;46780;48.128;-1.704;2023-03-14T04:48:24;9.70;99.90
60909;DHT22;46780;48.128;-1.704;2023-03-14T04:50:51;9.60;99.90
60909;DHT22;46780;48.128;-1.704;2023-03-14T04:53:18;9.60;99.90
60909;DHT22;46780;48.128;-1.704;2023-03-14T04:55:48;9.60;99.90
60909;DHT22;46780;48.128;-1.704;2023-03-14T04:58:15;9.50;99.90
60909;DHT22;46780;48.128;-1.704;2023-03-14T05:00:42;9.50;99.90
60909;DHT22;46780;48.128;-1.704;2023-03-14T05:03:09;9.40;99.90
60909;DHT22;46780;48.128;-1.704;2023-03-14T05:05:35;9.50;99.90
60909;DHT22;46780;48.128;-1.704;2023-03-14T05:08:02;9.50;99.90
60909;DHT22;46780;48.128;-1.704;2023-03-14T05:10:28;9.40;99.90
60909;DHT22;46780;48.128;-1.704;2023-03-14T05:12:55;9.40;99.90
60909;DHT22;46780;48.128;-1.704;2023-03-14T05:15:21;9.40;99.90
60909;DHT22;46780;48.128;-1.704;2023-03-14T05:17:49;9.40;99.90
60909;DHT22;46780;48.128;-1.704;2023-03-14T05:20:16;9.30;99.90
60909;DHT22;46780;48.128;-1.704;2023-03-14T05:22:42;9.30;99.90
60909;DHT22;46780;48.128;-1.704;2023-03-14T05:25:09;9.30;99.90
60909;DHT22;46780;48.128;-1.704;2023-03-14T05:27:36;9.20;99.90
60909;DHT22;46780;48.128;-1.704;2023-03-14T05:30:03;9.20;99.90
60909;DHT22;46780;48.128;-1.704;2023-03-14T05:32:30;9.20;99.90
60909;DHT22;46780;48.128;-1.704;2023-03-14T05:34:58;9.10;99.90
60909;DHT22;46780;48.128;-1.704;2023-03-14T05:37:24;9.10;99.70
60909;DHT22;46780;48.128;-1.704;2023-03-14T05:39:51;9.10;99.90
60909;DHT22;46780;48.128;-1.704;2023-03-14T05:42:18;9.00;99.90
60909;DHT22;46780;48.128;-1.704;2023-03-14T05:44:44;9.00;99.30
60909;DHT22;46780;48.128;-1.704;2023-03-14T05:47:11;8.90;99.40
60909;DHT22;46780;48.128;-1.704;2023-03-14T05:49:37;8.90;99.20
60909;DHT22;46780;48.128;-1.704;2023-03-14T05:52:05;8.80;99.40
60909;DHT22;46780;48.128;-1.704;2023-03-14T05:54:32;8.80;99.70
60909;DHT22;46780;48.128;-1.704;2023-03-14T05:56:58;8.70;99.50
60909;DHT22;46780;48.128;-1.704;2023-03-14T05:59:25;8.70;99.60
60909;DHT22;46780;48.128;-1.704;2023-03-14T06:01:51;8.70;99.80
60909;DHT22;46780;48.128;-1.704;2023-03-14T06:04:18;8.70;99.80
60909;DHT22;46780;48.128;-1.704;2023-03-14T06:06:44;8.70;99.90
60909;DHT22;46780;48.128;-1.704;2023-03-14T06:09:12;8.60;99.90
60909;DHT22;46780;48.128;-1.704;2023-03-14T06:11:38;8.60;99.90
60909;DHT22;46780;48.128;-1.704;2023-03-14T06:14:05;8.60;99.90
60909;DHT22;46780;48.128;-1.704;2023-03-14T06:16:31;8.50;99.90
60909;DHT22;46780;48.128;-1.704;2023-03-14T06:18:58;8.50;99.90
60909;DHT22;46780;48.128;-1.704;2023-03-14T06:21:25;8.50;99.90
60909;DHT22;46780;48.128;-1.704;2023-03-14T06:23:51;8.60;99.90
60909;DHT22;46780;48.128;-1.704;2023-03-14T06:26:19;8.50;99.90
60909;DHT22;46780;48.128;-1.704;2023-03-14T06:28:46;8.50;99.90
60909;DHT22;46780;48.128;-1.704;2023-03-14T06:31:12;8.50;99.90
60909;DHT22;46780;48.128;-1.704;2023-03-14T06:33:39;8.50;99.90
60909;DHT22;46780;48.128;-1.704;2023-03-14T06:36:06;8.50;99.90
60909;DHT22;46780;48.128;-1.704;2023-03-14T06:38:33;8.50;99.90
60909;DHT22;46780;48.128;-1.704;2023-03-14T06:41:03;8.50;99.90
60909;DHT22;46780;48.128;-1.704;2023-03-14T06:43:31;8.60;99.90
60909;DHT22;46780;48.128;-1.704;2023-03-14T06:45:58;8.60;99.90
60909;DHT22;46780;48.128;-1.704;2023-03-14T06:48:24;8.50;99.70
60909;DHT22;46780;48.128;-1.704;2023-03-14T06:50:51;8.50;99.60
60909;DHT22;46780;48.128;-1.704;2023-03-14T06:53:17;8.50;99.80
60909;DHT22;46780;48.128;-1.704;2023-03-14T06:55:43;8.50;99.90
60909;DHT22;46780;48.128;-1.704;2023-03-14T06:58:10;8.50;99.90
60909;DHT22;46780;48.128;-1.704;2023-03-14T07:00:38;8.50;99.90
60909;DHT22;46780;48.128;-1.704;2023-03-14T07:03:04;8.50;99.50
60909;DHT22;46780;48.128;-1.704;2023-03-14T07:05:31;8.50;99.70
60909;DHT22;46780;48.128;-1.704;2023-03-14T07:07:57;8.50;99.80
60909;DHT22;46780;48.128;-1.704;2023-03-14T07:10:24;8.50;99.50
60909;DHT22;46780;48.128;-1.704;2023-03-14T07:12:50;8.50;99.50
60909;DHT22;46780;48.128;-1.704;2023-03-14T07:15:17;8.50;99.20
60909;DHT22;46780;48.128;-1.704;2023-03-14T07:17:45;8.50;99.10
60909;DHT22;46780;48.128;-1.704;2023-03-14T07:20:11;8.50;99.40
60909;DHT22;46780;48.128;-1.704;2023-03-14T07:22:38;8.50;99.30
60909;DHT22;46780;48.128;-1.704;2023-03-14T07:25:05;8.40;99.40
60909;DHT22;46780;48.128;-1.704;2023-03-14T07:27:32;8.40;99.60
60909;DHT22;46780;48.128;-1.704;2023-03-14T07:29:58;8.40;99.90
60909;DHT22;46780;48.128;-1.704;2023-03-14T07:32:24;8.50;99.90
60909;DHT22;46780;48.128;-1.704;2023-03-14T07:34:52;8.50;99.90
60909;DHT22;46780;48.128;-1.704;2023-03-14T07:37:19;8.50;99.90
60909;DHT22;46780;48.128;-1.704;2023-03-14T07:39:45;8.60;99.90
60909;DHT22;46780;48.128;-1.704;2023-03-14T07:42:11;8.50;99.90
60909;DHT22;46780;48.128;-1.704;2023-03-14T07:44:38;8.50;99.90
60909;DHT22;46780;48.128;-1.704;2023-03-14T07:47:04;8.60;99.90
60909;DHT22;46780;48.128;-1.704;2023-03-14T07:49:31;8.70;99.90
60909;DHT22;46780;48.128;-1.704;2023-03-14T07:51:59;8.80;99.90
60909;DHT22;46780;48.128;-1.704;2023-03-14T07:54:25;8.80;99.90
60909;DHT22;46780;48.128;-1.704;2023-03-14T07:56:51;9.00;99.90
60909;DHT22;46780;48.128;-1.704;2023-03-14T07:59:18;9.10;99.60
60909;DHT22;46780;48.128;-1.704;2023-03-14T08:01:44;9.20;99.60
60909;DHT22;46780;48.128;-1.704;2023-03-14T08:04:11;9.30;99.00
60909;DHT22;46780;48.128;-1.704;2023-03-14T08:06:37;9.40;98.90
60909;DHT22;46780;48.128;-1.704;2023-03-14T08:09:05;9.70;98.80
60909;DHT22;46780;48.128;-1.704;2023-03-14T08:11:32;10.00;97.30
60909;DHT22;46780;48.128;-1.704;2023-03-14T08:13:58;10.40;96.90
60909;DHT22;46780;48.128;-1.704;2023-03-14T08:16:24;10.70;95.00
60909;DHT22;46780;48.128;-1.704;2023-03-14T08:18:51;11.00;94.10
60909;DHT22;46780;48.128;-1.704;2023-03-14T08:21:17;11.40;92.90
60909;DHT22;46780;48.128;-1.704;2023-03-14T08:23:44;11.70;90.80
60909;DHT22;46780;48.128;-1.704;2023-03-14T08:26:12;12.00;89.00
60909;DHT22;46780;48.128;-1.704;2023-03-14T08:28:38;12.30;87.30
60909;DHT22;46780;48.128;-1.704;2023-03-14T08:31:05;12.70;86.00
60909;DHT22;46780;48.128;-1.704;2023-03-14T08:33:31;13.00;83.60
60909;DHT22;46780;48.128;-1.704;2023-03-14T08:36:00;13.20;78.90
60909;DHT22;46780;48.128;-1.704;2023-03-14T08:38:27;13.50;77.10
60909;DHT22;46780;48.128;-1.704;2023-03-14T08:40:57;13.60;74.10
60909;DHT22;46780;48.128;-1.704;2023-03-14T08:43:25;13.70;75.00
60909;DHT22;46780;48.128;-1.704;2023-03-14T08:45:52;14.00;78.00
60909;DHT22;46780;48.128;-1.704;2023-03-14T08:48:18;14.20;70.60
60909;DHT22;46780;48.128;-1.704;2023-03-14T08:50:45;14.30;68.60
60909;DHT22;46780;48.128;-1.704;2023-03-14T08:53:11;14.40;68.20
60909;DHT22;46780;48.128;-1.704;2023-03-14T08:55:38;14.50;67.20
60909;DHT22;46780;48.128;-1.704;2023-03-14T08:58:04;14.50;66.30
60909;DHT22;46780;48.128;-1.704;2023-03-14T09:00:32;14.60;65.20
60909;DHT22;46780;48.128;-1.704;2023-03-14T09:02:58;14.50;67.70
60909;DHT22;46780;48.128;-1.704;2023-03-14T09:05:25;14.30;66.30
60909;DHT22;46780;48.128;-1.704;2023-03-14T09:07:51;14.40;66.80
60909;DHT22;46780;48.128;-1.704;2023-03-14T09:10:18;14.50;65.30
60909;DHT22;46780;48.128;-1.704;2023-03-14T09:12:44;14.30;68.00
60909;DHT22;46780;48.128;-1.704;2023-03-14T09:15:11;14.30;69.00
60909;DHT22;46780;48.128;-1.704;2023-03-14T09:17:39;14.60;69.20
60909;DHT22;46780;48.128;-1.704;2023-03-14T09:20:06;14.80;67.00
60909;DHT22;46780;48.128;-1.704;2023-03-14T09:22:33;14.70;65.10
60909;DHT22;46780;48.128;-1.704;2023-03-14T09:24:59;14.70;67.10
60909;DHT22;46780;48.128;-1.704;2023-03-14T09:27:25;15.00;66.70
60909;DHT22;46780;48.128;-1.704;2023-03-14T09:29:52;15.30;64.80
60909;DHT22;46780;48.128;-1.704;2023-03-14T09:32:18;15.50;61.60
60909;DHT22;46780;48.128;-1.704;2023-03-14T09:34:46;15.70;63.40
60909;DHT22;46780;48.128;-1.704;2023-03-14T09:37:12;15.80;59.80
60909;DHT22;46780;48.128;-1.704;2023-03-14T09:39:39;16.00;61.50
60909;DHT22;46780;48.128;-1.704;2023-03-14T09:42:10;16.00;58.30
60909;DHT22;46780;48.128;-1.704;2023-03-14T09:44:45;15.50;57.50
60909;DHT22;46780;48.128;-1.704;2023-03-14T09:47:15;15.10;57.20
60909;DHT22;46780;48.128;-1.704;2023-03-14T09:49:43;14.70;60.00
60909;DHT22;46780;48.128;-1.704;2023-03-14T09:52:15;14.50;61.70
60909;DHT22;46780;48.128;-1.704;2023-03-14T09:54:46;14.60;62.80
60909;DHT22;46780;48.128;-1.704;2023-03-14T09:57:15;14.90;64.70
60909;DHT22;46780;48.128;-1.704;2023-03-14T09:59:44;15.40;63.60
60909;DHT22;46780;48.128;-1.704;2023-03-14T10:02:17;15.70;60.00
60909;DHT22;46780;48.128;-1.704;2023-03-14T10:04:45;15.60;58.80
60909;DHT22;46780;48.128;-1.704;2023-03-14T10:07:15;14.90;57.50
60909;DHT22;46780;48.128;-1.704;2023-03-14T10:09:43;14.30;62.70
60909;DHT22;46780;48.128;-1.704;2023-03-14T10:12:10;14.20;65.60
60909;DHT22;46780;48.128;-1.704;2023-03-14T10:14:44;14.10;64.90
60909;DHT22;46780;48.128;-1.704;2023-03-14T10:17:13;14.10;65.50
60909;DHT22;46780;48.128;-1.704;2023-03-14T10:19:51;14.20;67.40
60909;DHT22;46780;48.128;-1.704;2023-03-14T10:22:19;14.40;64.40
60909;DHT22;46780;48.128;-1.704;2023-03-14T10:24:49;14.60;63.60
60909;DHT22;46780;48.128;-1.704;2023-03-14T10:27:20;14.90;62.20
60909;DHT22;46780;48.128;-1.704;2023-03-14T10:29:52;15.00;60.80
60909;DHT22;46780;48.128;-1.704;2023-03-14T10:32:20;15.10;60.70
60909;DHT22;46780;48.128;-1.704;2023-03-14T10:35:05;15.20;61.30
60909;DHT22;46780;48.128;-1.704;2023-03-14T10:37:34;15.40;60.30
60909;DHT22;46780;48.128;-1.704;2023-03-14T10:40:02;15.50;58.10
60909;DHT22;46780;48.128;-1.704;2023-03-14T10:42:30;15.70;59.10
60909;DHT22;46780;48.128;-1.704;2023-03-14T10:44:59;16.30;60.20
60909;DHT22;46780;48.128;-1.704;2023-03-14T10:47:27;17.00;59.10
60909;DHT22;46780;48.128;-1.704;2023-03-14T10:49:54;17.40;54.90
60909;DHT22;46780;48.128;-1.704;2023-03-14T10:52:22;17.60;48.80
60909;DHT22;46780;48.128;-1.704;2023-03-14T10:54:54;17.90;49.90
60909;DHT22;46780;48.128;-1.704;2023-03-14T10:57:23;18.20;48.20
60909;DHT22;46780;48.128;-1.704;2023-03-14T10:59:51;18.30;47.40
60909;DHT22;46780;48.128;-1.704;2023-03-14T11:02:34;18.40;45.60
60909;DHT22;46780;48.128;-1.704;2023-03-14T11:05:15;18.20;45.00
60909;DHT22;46780;48.128;-1.704;2023-03-14T11:07:45;18.00;46.20
60909;DHT22;46780;48.128;-1.704;2023-03-14T11:10:19;17.90;47.80
60909;DHT22;46780;48.128;-1.704;2023-03-14T11:12:55;18.00;47.30
60909;DHT22;46780;48.128;-1.704;2023-03-14T11:15:27;18.00;46.10
60909;DHT22;46780;48.128;-1.704;2023-03-14T11:18:09;17.90;43.40
60909;DHT22;46780;48.128;-1.704;2023-03-14T11:20:42;18.00;45.90
60909;DHT22;46780;48.128;-1.704;2023-03-14T11:23:14;17.90;43.10
60909;DHT22;46780;48.128;-1.704;2023-03-14T11:25:48;17.50;43.60
60909;DHT22;46780;48.128;-1.704;2023-03-14T11:28:19;17.10;44.80
60909;DHT22;46780;48.128;-1.704;2023-03-14T11:30:51;16.80;44.40
60909;DHT22;46780;48.128;-1.704;2023-03-14T11:33:22;16.90;46.70
60909;DHT22;46780;48.128;-1.704;2023-03-14T11:35:55;17.20;46.10
60909;DHT22;46780;48.128;-1.704;2023-03-14T11:38:30;17.40;45.60
60909;DHT22;46780;48.128;-1.704;2023-03-14T11:41:00;17.70;46.20
60909;DHT22;46780;48.128;-1.704;2023-03-14T11:43:29;18.30;46.40
60909;DHT22;46780;48.128;-1.704;2023-03-14T11:46:01;18.60;43.30
60909;DHT22;46780;48.128;-1.704;2023-03-14T11:48:35;18.70;43.20
60909;DHT22;46780;48.128;-1.704;2023-03-14T11:51:09;19.00;42.60
60909;DHT22;46780;48.128;-1.704;2023-03-14T11:53:45;19.40;41.30
60909;DHT22;46780;48.128;-1.704;2023-03-14T11:56:19;19.80;40.90
60909;DHT22;46780;48.128;-1.704;2023-03-14T11:58:54;20.40;39.50
60909;DHT22;46780;48.128;-1.704;2023-03-14T12:01:24;20.80;37.20
60909;DHT22;46780;48.128;-1.704;2023-03-14T12:03:56;20.80;35.90
60909;DHT22;46780;48.128;-1.704;2023-03-14T12:06:30;21.00;33.30
60909;DHT22;46780;48.128;-1.704;2023-03-14T12:08:59;21.00;35.00
60909;DHT22;46780;48.128;-1.704;2023-03-14T12:11:37;21.10;31.70
60909;DHT22;46780;48.128;-1.704;2023-03-14T12:14:18;20.80;33.40
60909;DHT22;46780;48.128;-1.704;2023-03-14T12:16:46;20.50;33.60
60909;DHT22;46780;48.128;-1.704;2023-03-14T12:21:59;19.70;34.90
60909;DHT22;46780;48.128;-1.704;2023-03-14T12:24:28;19.20;34.80
60909;DHT22;46780;48.128;-1.704;2023-03-14T12:26:58;18.70;36.30
60909;DHT22;46780;48.128;-1.704;2023-03-14T12:29:25;18.20;36.60
60909;DHT22;46780;48.128;-1.704;2023-03-14T12:32:07;17.90;38.40
60909;DHT22;46780;48.128;-1.704;2023-03-14T12:34:34;17.70;39.30
60909;DHT22;46780;48.128;-1.704;2023-03-14T12:37:12;17.50;39.30
60909;DHT22;46780;48.128;-1.704;2023-03-14T12:39:47;17.40;39.10
60909;DHT22;46780;48.128;-1.704;2023-03-14T12:42:22;17.60;39.20
60909;DHT22;46780;48.128;-1.704;2023-03-14T12:45:15;17.90;38.30
60909;DHT22;46780;48.128;-1.704;2023-03-14T12:47:56;18.30;38.00
60909;DHT22;46780;48.128;-1.704;2023-03-14T12:50:31;18.50;38.70
60909;DHT22;46780;48.128;-1.704;2023-03-14T12:53:18;18.80;36.70
60909;DHT22;46780;48.128;-1.704;2023-03-14T12:55:50;18.40;35.00
60909;DHT22;46780;48.128;-1.704;2023-03-14T12:58:28;17.90;36.20
60909;DHT22;46780;48.128;-1.704;2023-03-14T13:00:59;17.50;37.60
60909;DHT22;46780;48.128;-1.704;2023-03-14T13:03:37;17.30;38.40
60909;DHT22;46780;48.128;-1.704;2023-03-14T13:06:05;17.20;39.00
60909;DHT22;46780;48.128;-1.704;2023-03-14T13:08:37;16.90;39.30
60909;DHT22;46780;48.128;-1.704;2023-03-14T13:11:06;16.90;40.20
60909;DHT22;46780;48.128;-1.704;2023-03-14T13:13:37;17.30;39.10
60909;DHT22;46780;48.128;-1.704;2023-03-14T13:16:10;17.80;38.20
60909;DHT22;46780;48.128;-1.704;2023-03-14T13:18:41;18.40;37.70
60909;DHT22;46780;48.128;-1.704;2023-03-14T13:21:12;19.00;34.40
60909;DHT22;46780;48.128;-1.704;2023-03-14T13:23:40;19.40;34.10
60909;DHT22;46780;48.128;-1.704;2023-03-14T13:26:19;20.00;33.30
60909;DHT22;46780;48.128;-1.704;2023-03-14T13:28:47;20.10;31.00
60909;DHT22;46780;48.128;-1.704;2023-03-14T13:31:21;19.80;32.00
60909;DHT22;46780;48.128;-1.704;2023-03-14T13:33:57;19.70;31.30
60909;DHT22;46780;48.128;-1.704;2023-03-14T13:36:24;19.30;33.10
60909;DHT22;46780;48.128;-1.704;2023-03-14T13:38:56;19.50;35.40
60909;DHT22;46780;48.128;-1.704;2023-03-14T13:41:24;19.80;38.30
60909;DHT22;46780;48.128;-1.704;2023-03-14T13:43:52;19.80;39.20
60909;DHT22;46780;48.128;-1.704;2023-03-14T13:46:23;19.50;39.80
60909;DHT22;46780;48.128;-1.704;2023-03-14T13:48:52;19.30;41.50
60909;DHT22;46780;48.128;-1.704;2023-03-14T13:51:19;19.60;42.40
60909;DHT22;46780;48.128;-1.704;2023-03-14T13:53:48;20.20;42.70
60909;DHT22;46780;48.128;-1.704;2023-03-14T13:56:15;20.60;40.10
60909;DHT22;46780;48.128;-1.704;2023-03-14T13:58:42;20.90;39.60
60909;DHT22;46780;48.128;-1.704;2023-03-14T14:01:15;21.30;38.60
60909;DHT22;46780;48.128;-1.704;2023-03-14T14:03:45;21.40;37.80
60909;DHT22;46780;48.128;-1.704;2023-03-14T14:06:27;21.40;37.20
60909;DHT22;46780;48.128;-1.704;2023-03-14T14:08:55;21.30;38.30
60909;DHT22;46780;48.128;-1.704;2023-03-14T14:11:31;21.20;38.50
60909;DHT22;46780;48.128;-1.704;2023-03-14T14:13:59;20.90;38.40
60909;DHT22;46780;48.128;-1.704;2023-03-14T14:16:28;20.60;39.20
60909;DHT22;46780;48.128;-1.704;2023-03-14T14:18:56;20.60;38.90
60909;DHT22;46780;48.128;-1.704;2023-03-14T14:21:24;20.80;39.40
60909;DHT22;46780;48.128;-1.704;2023-03-14T14:23:51;21.10;38.80
60909;DHT22;46780;48.128;-1.704;2023-03-14T14:26:19;21.10;38.00
60909;DHT22;46780;48.128;-1.704;2023-03-14T14:28:46;21.10;37.80
60909;DHT22;46780;48.128;-1.704;2023-03-14T14:31:20;20.90;37.90
60909;DHT22;46780;48.128;-1.704;2023-03-14T14:33:55;21.00;37.10
60909;DHT22;46780;48.128;-1.704;2023-03-14T14:36:25;21.00;37.50
60909;DHT22;46780;48.128;-1.704;2023-03-14T14:38:54;21.00;37.10
60909;DHT22;46780;48.128;-1.704;2023-03-14T14:41:26;21.00;37.10
60909;DHT22;46780;48.128;-1.704;2023-03-14T14:43:52;21.00;37.00
60909;DHT22;46780;48.128;-1.704;2023-03-14T14:46:19;20.80;36.80
60909;DHT22;46780;48.128;-1.704;2023-03-14T14:48:46;20.60;36.60
60909;DHT22;46780;48.128;-1.704;2023-03-14T14:51:23;20.40;37.30
60909;DHT22;46780;48.128;-1.704;2023-03-14T14:53:49;20.00;37.80
60909;DHT22;46780;48.128;-1.704;2023-03-14T14:56:18;19.70;38.40
60909;DHT22;46780;48.128;-1.704;2023-03-14T14:58:46;19.50;38.70
60909;DHT22;46780;48.128;-1.704;2023-03-14T15:01:15;19.30;39.20
60909;DHT22;46780;48.128;-1.704;2023-03-14T15:03:44;19.00;39.00
60909;DHT22;46780;48.128;-1.704;2023-03-14T15:06:12;18.80;39.20
60909;DHT22;46780;48.128;-1.704;2023-03-14T15:08:41;18.60;39.30
60909;DHT22;46780;48.128;-1.704;2023-03-14T15:11:12;18.30;39.20
60909;DHT22;46780;48.128;-1.704;2023-03-14T15:13:41;18.20;40.00
60909;DHT22;46780;48.128;-1.704;2023-03-14T15:16:09;18.00;40.20
60909;DHT22;46780;48.128;-1.704;2023-03-14T15:18:36;17.80;40.50
60909;DHT22;46780;48.128;-1.704;2023-03-14T15:21:03;17.60;40.60
60909;DHT22;46780;48.128;-1.704;2023-03-14T15:23:29;17.50;41.30
60909;DHT22;46780;48.128;-1.704;2023-03-14T15:25:57;17.40;41.30
60909;DHT22;46780;48.128;-1.704;2023-03-14T15:28:25;17.30;42.60
60909;DHT22;46780;48.128;-1.704;2023-03-14T15:30:53;17.20;41.80
60909;DHT22;46780;48.128;-1.704;2023-03-14T15:33:21;17.10;41.60
60909;DHT22;46780;48.128;-1.704;2023-03-14T15:35:48;16.90;41.70